sensor_id;sensor_type;location;lat;lon;timestamp;pressure;altitude;pressure_sealevel;temperature;humidity
46199;BME280;31928;52.104;10.030;2023-04-07T00:01:51;100614.75;;;9.24;34.71
46199;BME280;31928;52.104;10.030;2023-04-07T00:04:18;100612.47;;;9.21;34.82
46199;BME280;31928;52.104;10.030;2023-04-07T00:06:45;100613.69;;;9.18;34.96
46199;BME280;31928;52.104;10.030;2023-04-07T00:09:11;100613.25;;;9.15;34.88
46199;BME280;31928;52.104;10.030;2023-04-07T00:11:38;100608.31;;;9.12;35.07
46199;BME280;31928;52.104;10.030;2023-04-07T00:14:04;100608.69;;;9.09;34.84
46199;BME280;31928;52.104;10.030;2023-04-07T00:16:31;100617.09;;;9.06;34.97
46199;BME280;31928;52.104;10.030;2023-04-07T00:18:57;100610.50;;;9.02;34.91
46199;BME280;31928;52.104;10.030;2023-04-07T00:21:24;100615.41;;;8.98;35.16
46199;BME280;31928;52.104;10.030;2023-04-07T00:23:52;100610.66;;;8.94;35.13
46199;BME280;31928;52.104;10.030;2023-04-07T00:26:19;100610.22;;;8.91;35.26
46199;BME280;31928;52.104;10.030;2023-04-07T00:28:45;100608.16;;;8.86;34.96
46199;BME280;31928;52.104;10.030;2023-04-07T00:31:12;100608.53;;;8.83;34.93
46199;BME280;31928;52.104;10.030;2023-04-07T00:33:38;100604.78;;;8.78;35.00
46199;BME280;31928;52.104;10.030;2023-04-07T00:36:05;100615.03;;;8.74;35.04
46199;BME280;31928;52.104;10.030;2023-04-07T00:38:31;100614.63;;;8.71;35.38
46199;BME280;31928;52.104;10.030;2023-04-07T00:40:58;100611.72;;;8.66;35.41
46199;BME280;31928;52.104;10.030;2023-04-07T00:43:25;100614.94;;;8.61;35.14
46199;BME280;31928;52.104;10.030;2023-04-07T00:45:52;100605.66;;;8.57;35.15
46199;BME280;31928;52.104;10.030;2023-04-07T00:48:19;100605.88;;;8.56;35.33
46199;BME280;31928;52.104;10.030;2023-04-07T00:50:45;100608.09;;;8.52;35.18
46199;BME280;31928;52.104;10.030;2023-04-07T00:53:13;100610.34;;;8.49;35.37
46199;BME280;31928;52.104;10.030;2023-04-07T00:55:39;100600.88;;;8.46;35.54
46199;BME280;31928;52.104;10.030;2023-04-07T00:58:06;100592.22;;;8.44;35.52
46199;BME280;31928;52.104;10.030;2023-04-07T01:00:34;100596.31;;;8.40;35.24
46199;BME280;31928;52.104;10.030;2023-04-07T01:03:05;100599.38;;;8.38;35.50
46199;BME280;31928;52.104;10.030;2023-04-07T01:08:07;100591.72;;;8.35;35.58
46199;BME280;31928;52.104;10.030;2023-04-07T01:13:08;100601.13;;;8.31;35.61
46199;BME280;31928;52.104;10.030;2023-04-07T01:15:38;100586.31;;;8.28;35.81
46199;BME280;31928;52.104;10.030;2023-04-07T01:18:07;100593.72;;;8.26;35.43
46199;BME280;31928;52.104;10.030;2023-04-07T01:20:36;100595.75;;;8.24;35.40
46199;BME280;31928;52.104;10.030;2023-04-07T01:23:04;100586.25;;;8.22;35.80
46199;BME280;31928;52.104;10.030;2023-04-07T01:28:09;100591.00;;;8.20;35.53
46199;BME280;31928;52.104;10.030;2023-04-07T01:30:39;100594.66;;;8.19;35.70
46199;BME280;31928;52.104;10.030;2023-04-07T01:33:07;100587.88;;;8.16;35.53
46199;BME280;31928;52.104;10.030;2023-04-07T01:35:35;100589.06;;;8.14;35.58
46199;BME280;31928;52.104;10.030;2023-04-07T01:38:02;100587.38;;;8.13;35.91
46199;BME280;31928;52.104;10.030;2023-04-07T01:40:31;100586.78;;;8.11;35.73
46199;BME280;31928;52.104;10.030;2023-04-07T01:42:58;100586.97;;;8.09;35.64
46199;BME280;31928;52.104;10.030;2023-04-07T01:45:26;100595.13;;;8.08;35.64
46199;BME280;31928;52.104;10.030;2023-04-07T01:47:53;100586.50;;;8.06;35.60
46199;BME280;31928;52.104;10.030;2023-04-07T01:50:20;100589.38;;;8.04;35.96
46199;BME280;31928;52.104;10.030;2023-04-07T01:52:47;100595.94;;;8.02;35.90
46199;BME280;31928;52.104;10.030;2023-04-07T01:55:13;100595.28;;;8.00;35.98
46199;BME280;31928;52.104;10.030;2023-04-07T01:57:40;100590.97;;;7.99;35.92
46199;BME280;31928;52.104;10.030;2023-04-07T02:00:07;100593.00;;;7.97;35.70
46199;BME280;31928;52.104;10.030;2023-04-07T02:02:35;100591.34;;;7.96;35.75
46199;BME280;31928;52.104;10.030;2023-04-07T02:05:03;100593.38;;;7.94;35.73
46199;BME280;31928;52.104;10.030;2023-04-07T02:07:34;100596.41;;;7.91;35.79
46199;BME280;31928;52.104;10.030;2023-04-07T02:10:05;100596.59;;;7.89;35.78
46199;BME280;31928;52.104;10.030;2023-04-07T02:12:32;100588.81;;;7.88;36.17
46199;BME280;31928;52.104;10.030;2023-04-07T02:14:59;100594.34;;;7.86;36.10
46199;BME280;31928;52.104;10.030;2023-04-07T02:17:26;100587.53;;;7.84;36.03
46199;BME280;31928;52.104;10.030;2023-04-07T02:19:53;100585.06;;;7.82;36.09
46199;BME280;31928;52.104;10.030;2023-04-07T02:22:21;100587.91;;;7.81;35.91
46199;BME280;31928;52.104;10.030;2023-04-07T02:24:48;100583.78;;;7.78;35.87
46199;BME280;31928;52.104;10.030;2023-04-07T02:27:15;100582.31;;;7.76;35.96
46199;BME280;31928;52.104;10.030;2023-04-07T02:29:42;100582.50;;;7.75;36.26
46199;BME280;31928;52.104;10.030;2023-04-07T02:32:08;100576.72;;;7.71;36.28
46199;BME280;31928;52.104;10.030;2023-04-07T02:34:35;100581.41;;;7.69;36.06
46199;BME280;31928;52.104;10.030;2023-04-07T02:37:02;100591.47;;;7.67;36.21
46199;BME280;31928;52.104;10.030;2023-04-07T02:39:29;100588.53;;;7.62;36.20
46199;BME280;31928;52.104;10.030;2023-04-07T02:41:55;100587.88;;;7.60;36.05
46199;BME280;31928;52.104;10.030;2023-04-07T02:44:22;100582.94;;;7.57;36.16
46199;BME280;31928;52.104;10.030;2023-04-07T02:46:48;100585.97;;;7.54;36.45
46199;BME280;31928;52.104;10.030;2023-04-07T02:49:15;100585.53;;;7.51;36.45
46199;BME280;31928;52.104;10.030;2023-04-07T02:51:41;100583.44;;;7.46;36.22
46199;BME280;31928;52.104;10.030;2023-04-07T02:54:08;100580.94;;;7.45;36.08
46199;BME280;31928;52.104;10.030;2023-04-07T02:56:34;100591.16;;;7.41;36.21
46199;BME280;31928;52.104;10.030;2023-04-07T02:59:01;100584.56;;;7.37;36.37
46199;BME280;31928;52.104;10.030;2023-04-07T03:01:27;100592.09;;;7.34;36.57
46199;BME280;31928;52.104;10.030;2023-04-07T03:03:54;100588.16;;;7.30;36.63
46199;BME280;31928;52.104;10.030;2023-04-07T03:06:21;100582.34;;;7.26;36.54
46199;BME280;31928;52.104;10.030;2023-04-07T03:08:48;100588.06;;;7.23;36.38
46199;BME280;31928;52.104;10.030;2023-04-07T03:11:14;100590.47;;;7.18;36.50
46199;BME280;31928;52.104;10.030;2023-04-07T03:13:41;100585.31;;;7.17;36.43
46199;BME280;31928;52.104;10.030;2023-04-07T03:16:08;100583.19;;;7.13;36.63
46199;BME280;31928;52.104;10.030;2023-04-07T03:18:34;100585.25;;;7.11;36.48
46199;BME280;31928;52.104;10.030;2023-04-07T03:21:01;100584.59;;;7.09;36.61
46199;BME280;31928;52.104;10.030;2023-04-07T03:23:28;100590.28;;;7.06;36.82
46199;BME280;31928;52.104;10.030;2023-04-07T03:25:55;100583.31;;;7.05;36.66
46199;BME280;31928;52.104;10.030;2023-04-07T03:28:23;100582.66;;;7.03;36.95
46199;BME280;31928;52.104;10.030;2023-04-07T03:30:49;100582.03;;;7.01;36.59
46199;BME280;31928;52.104;10.030;2023-04-07T03:33:16;100581.22;;;7.00;36.82
46199;BME280;31928;52.104;10.030;2023-04-07T03:35:42;100575.41;;;6.97;36.74
46199;BME280;31928;52.104;10.030;2023-04-07T03:38:09;100577.41;;;6.95;36.68
46199;BME280;31928;52.104;10.030;2023-04-07T03:40:36;100576.78;;;6.93;37.18
46199;BME280;31928;52.104;10.030;2023-04-07T03:43:03;100584.13;;;6.91;37.10
46199;BME280;31928;52.104;10.030;2023-04-07T03:45:32;100585.31;;;6.88;36.80
46199;BME280;31928;52.104;10.030;2023-04-07T03:47:58;100580.19;;;6.87;37.14
46199;BME280;31928;52.104;10.030;2023-04-07T03:50:25;100589.38;;;6.84;36.90
46199;BME280;31928;52.104;10.030;2023-04-07T03:52:54;100594.88;;;6.83;37.09
46199;BME280;31928;52.104;10.030;2023-04-07T03:55:21;100591.22;;;6.84;38.78
46199;BME280;31928;52.104;10.030;2023-04-07T03:57:47;100589.53;;;6.97;40.09
46199;BME280;31928;52.104;10.030;2023-04-07T04:00:14;100586.78;;;7.19;40.95
46199;BME280;31928;52.104;10.030;2023-04-07T04:02:41;100596.19;;;7.51;41.84
46199;BME280;31928;52.104;10.030;2023-04-07T04:05:07;100588.34;;;7.84;42.46
46199;BME280;31928;52.104;10.030;2023-04-07T04:07:34;100594.47;;;8.20;43.26
46199;BME280;31928;52.104;10.030;2023-04-07T04:10:01;100599.31;;;8.58;43.24
46199;BME280;31928;52.104;10.030;2023-04-07T04:12:27;100589.28;;;8.94;43.44
46199;BME280;31928;52.104;10.030;2023-04-07T04:14:54;100591.91;;;9.28;44.70
46199;BME280;31928;52.104;10.030;2023-04-07T04:17:21;100598.63;;;9.57;42.62
46199;BME280;31928;52.104;10.030;2023-04-07T04:19:47;100598.28;;;9.80;41.90
46199;BME280;31928;52.104;10.030;2023-04-07T04:22:14;100602.06;;;9.98;41.33
46199;BME280;31928;52.104;10.030;2023-04-07T04:24:40;100590.94;;;10.14;41.27
46199;BME280;31928;52.104;10.030;2023-04-07T04:27:07;100590.78;;;10.28;40.46
46199;BME280;31928;52.104;10.030;2023-04-07T04:29:33;100592.63;;;10.41;39.84
46199;BME280;31928;52.104;10.030;2023-04-07T04:32:00;100588.09;;;10.48;39.06
46199;BME280;31928;52.104;10.030;2023-04-07T04:34:26;100593.47;;;10.48;38.41
46199;BME280;31928;52.104;10.030;2023-04-07T04:36:53;100602.94;;;10.44;37.70
46199;BME280;31928;52.104;10.030;2023-04-07T04:39:19;100593.03;;;10.38;37.34
46199;BME280;31928;52.104;10.030;2023-04-07T04:41:46;100594.69;;;10.26;37.15
46199;BME280;31928;52.104;10.030;2023-04-07T04:44:12;100601.66;;;10.14;36.99
46199;BME280;31928;52.104;10.030;2023-04-07T04:46:39;100610.72;;;10.00;36.90
46199;BME280;31928;52.104;10.030;2023-04-07T04:49:05;100607.34;;;9.85;36.90
46199;BME280;31928;52.104;10.030;2023-04-07T04:51:32;100605.88;;;9.70;36.52
46199;BME280;31928;52.104;10.030;2023-04-07T04:53:58;100610.53;;;9.55;36.44
46199;BME280;31928;52.104;10.030;2023-04-07T04:56:25;100614.41;;;9.40;36.67
46199;BME280;31928;52.104;10.030;2023-04-07T04:58:52;100609.41;;;9.24;36.74
46199;BME280;31928;52.104;10.030;2023-04-07T05:01:18;100612.00;;;9.11;36.74
46199;BME280;31928;52.104;10.030;2023-04-07T05:03:45;100620.16;;;8.97;36.61
46199;BME280;31928;52.104;10.030;2023-04-07T05:06:12;100620.88;;;8.84;36.79
46199;BME280;31928;52.104;10.030;2023-04-07T05:08:38;100615.44;;;8.71;36.71
46199;BME280;31928;52.104;10.030;2023-04-07T05:11:05;100611.66;;;8.59;36.70
46199;BME280;31928;52.104;10.030;2023-04-07T05:13:31;100614.03;;;8.48;36.65
46199;BME280;31928;52.104;10.030;2023-04-07T05:15:58;100618.88;;;8.38;37.02
46199;BME280;31928;52.104;10.030;2023-04-07T05:18:24;100611.41;;;8.27;36.93
46199;BME280;31928;52.104;10.030;2023-04-07T05:20:51;100618.91;;;8.17;36.90
46199;BME280;31928;52.104;10.030;2023-04-07T05:23:17;100617.53;;;8.07;36.87
46199;BME280;31928;52.104;10.030;2023-04-07T05:25:44;100616.00;;;7.98;37.19
46199;BME280;31928;52.104;10.030;2023-04-07T05:28:11;100619.81;;;7.89;37.00
46199;BME280;31928;52.104;10.030;2023-04-07T05:30:37;100625.28;;;7.81;37.34
46199;BME280;31928;52.104;10.030;2023-04-07T05:33:04;100624.38;;;7.74;37.21
46199;BME280;31928;52.104;10.030;2023-04-07T05:35:30;100625.13;;;7.68;37.32
46199;BME280;31928;52.104;10.030;2023-04-07T05:37:57;100619.53;;;7.63;37.47
46199;BME280;31928;52.104;10.030;2023-04-07T05:40:24;100623.59;;;7.59;37.68
46199;BME280;31928;52.104;10.030;2023-04-07T05:42:50;100628.28;;;7.57;37.67
46199;BME280;31928;52.104;10.030;2023-04-07T05:45:17;100625.16;;;7.54;37.67
46199;BME280;31928;52.104;10.030;2023-04-07T05:47:43;100623.69;;;7.51;37.57
46199;BME280;31928;52.104;10.030;2023-04-07T05:50:12;100629.41;;;7.48;37.62
46199;BME280;31928;52.104;10.030;2023-04-07T05:52:39;100633.91;;;7.48;37.91
46199;BME280;31928;52.104;10.030;2023-04-07T05:55:06;100633.06;;;7.47;37.72
46199;BME280;31928;52.104;10.030;2023-04-07T05:57:33;100634.72;;;7.48;37.79
46199;BME280;31928;52.104;10.030;2023-04-07T06:00:00;100636.41;;;7.49;38.16
46199;BME280;31928;52.104;10.030;2023-04-07T06:02:26;100644.19;;;7.51;38.09
46199;BME280;31928;52.104;10.030;2023-04-07T06:04:53;100642.19;;;7.53;38.07
46199;BME280;31928;52.104;10.030;2023-04-07T06:07:20;100634.81;;;7.55;38.12
46199;BME280;31928;52.104;10.030;2023-04-07T06:09:46;100645.94;;;7.58;38.39
46199;BME280;31928;52.104;10.030;2023-04-07T06:12:13;100641.88;;;7.62;38.38
46199;BME280;31928;52.104;10.030;2023-04-07T06:14:40;100645.84;;;7.66;38.32
46199;BME280;31928;52.104;10.030;2023-04-07T06:17:07;100653.44;;;7.69;38.36
46199;BME280;31928;52.104;10.030;2023-04-07T06:19:33;100657.22;;;7.75;38.28
46199;BME280;31928;52.104;10.030;2023-04-07T06:22:00;100651.13;;;7.80;38.25
46199;BME280;31928;52.104;10.030;2023-04-07T06:24:27;100648.72;;;7.85;38.66
